Gjoa Haven Airport
CYHK : now visible

Airfield :











YOU CAN JOIN US ON...

 
LOGIN :

Register | Disclaimer

   EN    FR    IT 

 









Legend :    VFR   Marginal VFR   IFR   Intensive IFR   Very Intensive IFR
Visi :
Ceiling :
>= 8 km
>= 3000ft
5 to 8 km
1000 to 3000 ft
1500m to 5 km
500 to 1000 ft
800 to 1500m
200 to 500 ft
< 800m
< 200 ft
Symbols :   Thunderstorms  Fog  Heavy snow  Heavy precipitations  Wind > 20 kt






- Airport Elevation : 152 ft
- IATA code : YHK


CYHK - Gjoa Haven

CURRENT METAR :
  • 011204Z AUTO 18003KT 2 1/2SM BR OVC110 M19/M21 A2992 RMK SLP137

EXPIRED METARs :
  • 011153Z AUTO 18003KT 160V230 2SM BR OVC110 M23/M25 A2992 RMK SLP136
  • 011123Z AUTO 00000KT 2 1/2SM BR OVC110 M22/M24 A2992 RMK SLP136
  • 011109Z AUTO 01002KT 1 1/4SM BR OVC110 M20/M22 A2992 RMK SLP135
  • 011104Z AUTO 35003KT 2 1/4SM BR OVC110 M21/M23 A2992 RMK SLP134
  • 011000Z AUTO 34005KT 3SM BR FEW130 M22/M24 A2988 RMK SLP125

TAF TAF CYHK
Valid from the 01 at 12:00 until the 02 at 00:00 UTC


011138Z 0112/0124 VRB03KT 3SM IC BR OVC120
TEMPO 0112/0114 1SM IC BR
FM011400 VRB03KT P6SM FEW015 SCT100
TEMPO 0114/0124 3SM IC BR FEW006 SCT015 BKN100
BECMG 0114/0116 22008KT RMK FCST BASED ON AUTO OBS. NXT FCST BY 011800Z
CZEG FIR / North America



MET'MAP, your aeronautical weather chart ! - Copyright ORBIFLY December 2007 - Disclaimer

ORBIFLY MET'MAP TEAM :

Programming & Development : Alexandra Zaïnal
Concept & original design : Baudouin d'Aumeries
Assistance for programming : Marc-Olivier Méhu
Technical & hardware support : Manuel Goepfert

Contact : metmap@orbifly.com




SOURCES & CREDITS :

   NOAA       Earth
Advisory